sensor_id;sensor_type;location;lat;lon;timestamp;temperature;humidity
54516;DHT22;40422;45.892;4.738;2023-04-04T03:01:10;3.40;99.90
54516;DHT22;40422;45.892;4.738;2023-04-04T03:03:36;3.40;99.90
54516;DHT22;40422;45.892;4.738;2023-04-04T03:06:02;3.40;99.90
54516;DHT22;40422;45.892;4.738;2023-04-04T03:08:27;3.40;99.90
54516;DHT22;40422;45.892;4.738;2023-04-04T03:10:53;3.40;99.90
54516;DHT22;40422;45.892;4.738;2023-04-04T03:13:19;3.40;99.90
54516;DHT22;40422;45.892;4.738;2023-04-04T03:15:45;3.30;99.90
54516;DHT22;40422;45.892;4.738;2023-04-04T03:18:11;3.40;99.90
54516;DHT22;40422;45.892;4.738;2023-04-04T03:20:37;3.30;99.90
54516;DHT22;40422;45.892;4.738;2023-04-04T03:23:02;3.40;99.90
54516;DHT22;40422;45.892;4.738;2023-04-04T03:25:28;3.40;99.90
54516;DHT22;40422;45.892;4.738;2023-04-04T03:27:53;3.40;99.90
54516;DHT22;40422;45.892;4.738;2023-04-04T03:30:19;3.30;99.90
54516;DHT22;40422;45.892;4.738;2023-04-04T03:32:45;3.30;99.90
54516;DHT22;40422;45.892;4.738;2023-04-04T03:35:10;3.30;99.90
54516;DHT22;40422;45.892;4.738;2023-04-04T03:37:37;3.30;99.90
54516;DHT22;40422;45.892;4.738;2023-04-04T03:40:03;3.30;99.90
54516;DHT22;40422;45.892;4.738;2023-04-04T03:42:32;3.20;99.90
54516;DHT22;40422;45.892;4.738;2023-04-04T03:44:58;3.20;99.90
54516;DHT22;40422;45.892;4.738;2023-04-04T03:47:25;3.20;99.90
54516;DHT22;40422;45.892;4.738;2023-04-04T03:49:51;3.20;99.90
54516;DHT22;40422;45.892;4.738;2023-04-04T03:52:17;3.20;99.90
54516;DHT22;40422;45.892;4.738;2023-04-04T03:54:43;3.10;99.90
54516;DHT22;40422;45.892;4.738;2023-04-04T03:57:09;3.10;99.90
54516;DHT22;40422;45.892;4.738;2023-04-04T03:59:34;3.10;99.90
54516;DHT22;40422;45.892;4.738;2023-04-04T04:02:00;3.10;99.90
54516;DHT22;40422;45.892;4.738;2023-04-04T04:04:26;3.00;99.90
54516;DHT22;40422;45.892;4.738;2023-04-04T04:06:51;3.00;99.90
54516;DHT22;40422;45.892;4.738;2023-04-04T04:09:17;3.00;99.90
54516;DHT22;40422;45.892;4.738;2023-04-04T04:11:43;3.00;99.90
54516;DHT22;40422;45.892;4.738;2023-04-04T04:14:08;3.00;99.90
54516;DHT22;40422;45.892;4.738;2023-04-04T04:16:38;3.00;99.90
54516;DHT22;40422;45.892;4.738;2023-04-04T04:19:03;3.00;99.90
54516;DHT22;40422;45.892;4.738;2023-04-04T04:21:29;3.00;99.90
54516;DHT22;40422;45.892;4.738;2023-04-04T04:23:55;3.00;99.90
54516;DHT22;40422;45.892;4.738;2023-04-04T04:26:20;3.00;99.90
54516;DHT22;40422;45.892;4.738;2023-04-04T04:28:46;2.90;99.90
54516;DHT22;40422;45.892;4.738;2023-04-04T04:31:12;2.90;99.90
54516;DHT22;40422;45.892;4.738;2023-04-04T04:33:38;2.90;99.90
54516;DHT22;40422;45.892;4.738;2023-04-04T04:36:04;2.90;99.90
54516;DHT22;40422;45.892;4.738;2023-04-04T04:38:31;2.90;99.90
54516;DHT22;40422;45.892;4.738;2023-04-04T04:40:57;2.90;99.90
54516;DHT22;40422;45.892;4.738;2023-04-04T04:43:23;2.90;99.90
54516;DHT22;40422;45.892;4.738;2023-04-04T04:45:49;2.80;99.90
54516;DHT22;40422;45.892;4.738;2023-04-04T04:48:15;2.80;99.90
54516;DHT22;40422;45.892;4.738;2023-04-04T04:50:44;2.80;99.90
54516;DHT22;40422;45.892;4.738;2023-04-04T04:53:09;2.80;99.90
54516;DHT22;40422;45.892;4.738;2023-04-04T04:55:35;2.80;99.90
54516;DHT22;40422;45.892;4.738;2023-04-04T04:58:00;2.80;99.90
54516;DHT22;40422;45.892;4.738;2023-04-04T05:00:27;2.80;99.90
54516;DHT22;40422;45.892;4.738;2023-04-04T05:02:56;2.80;99.90
54516;DHT22;40422;45.892;4.738;2023-04-04T05:05:22;2.70;99.90
54516;DHT22;40422;45.892;4.738;2023-04-04T05:07:47;2.80;99.90
54516;DHT22;40422;45.892;4.738;2023-04-04T05:10:13;2.80;99.90
54516;DHT22;40422;45.892;4.738;2023-04-04T05:12:43;2.80;99.90
54516;DHT22;40422;45.892;4.738;2023-04-04T05:15:12;2.80;99.90
54516;DHT22;40422;45.892;4.738;2023-04-04T05:17:38;2.80;99.90
54516;DHT22;40422;45.892;4.738;2023-04-04T05:20:04;2.80;99.90
54516;DHT22;40422;45.892;4.738;2023-04-04T05:22:30;2.80;99.90
54516;DHT22;40422;45.892;4.738;2023-04-04T05:24:56;2.80;99.90
54516;DHT22;40422;45.892;4.738;2023-04-04T05:27:21;2.80;99.90
54516;DHT22;40422;45.892;4.738;2023-04-04T05:29:47;2.80;99.90
54516;DHT22;40422;45.892;4.738;2023-04-04T05:32:13;2.80;99.90
54516;DHT22;40422;45.892;4.738;2023-04-04T05:34:39;2.80;99.90
54516;DHT22;40422;45.892;4.738;2023-04-04T05:37:04;2.80;99.90
54516;DHT22;40422;45.892;4.738;2023-04-04T05:39:30;2.80;99.90
54516;DHT22;40422;45.892;4.738;2023-04-04T05:41:56;2.80;99.90
54516;DHT22;40422;45.892;4.738;2023-04-04T05:44:21;2.70;99.90
54516;DHT22;40422;45.892;4.738;2023-04-04T05:46:47;2.70;99.90
54516;DHT22;40422;45.892;4.738;2023-04-04T05:49:13;2.70;99.90
54516;DHT22;40422;45.892;4.738;2023-04-04T05:51:38;2.70;99.90
54516;DHT22;40422;45.892;4.738;2023-04-04T05:54:04;2.80;99.90
54516;DHT22;40422;45.892;4.738;2023-04-04T05:56:32;2.80;99.90
54516;DHT22;40422;45.892;4.738;2023-04-04T05:58:57;2.80;99.90
54516;DHT22;40422;45.892;4.738;2023-04-04T06:01:23;2.90;99.90
54516;DHT22;40422;45.892;4.738;2023-04-04T06:03:50;2.90;99.90
54516;DHT22;40422;45.892;4.738;2023-04-04T06:06:16;2.90;99.90
54516;DHT22;40422;45.892;4.738;2023-04-04T06:08:41;3.00;99.90
54516;DHT22;40422;45.892;4.738;2023-04-04T06:11:07;3.00;99.90
54516;DHT22;40422;45.892;4.738;2023-04-04T06:13:32;3.10;99.90
54516;DHT22;40422;45.892;4.738;2023-04-04T06:15:58;3.10;99.90
54516;DHT22;40422;45.892;4.738;2023-04-04T06:18:24;3.10;99.90
54516;DHT22;40422;45.892;4.738;2023-04-04T06:20:49;3.20;99.90
54516;DHT22;40422;45.892;4.738;2023-04-04T06:23:15;3.20;99.90
54516;DHT22;40422;45.892;4.738;2023-04-04T06:25:41;3.30;99.90
54516;DHT22;40422;45.892;4.738;2023-04-04T06:28:07;3.40;99.90
54516;DHT22;40422;45.892;4.738;2023-04-04T06:30:36;3.40;99.90
54516;DHT22;40422;45.892;4.738;2023-04-04T06:33:03;3.40;99.90
54516;DHT22;40422;45.892;4.738;2023-04-04T06:35:29;3.50;99.90
54516;DHT22;40422;45.892;4.738;2023-04-04T06:37:55;3.50;99.90
54516;DHT22;40422;45.892;4.738;2023-04-04T06:40:21;3.60;99.90
54516;DHT22;40422;45.892;4.738;2023-04-04T06:42:50;3.70;99.90
54516;DHT22;40422;45.892;4.738;2023-04-04T06:45:26;3.70;99.90
54516;DHT22;40422;45.892;4.738;2023-04-04T06:47:53;3.70;99.90
54516;DHT22;40422;45.892;4.738;2023-04-04T06:50:21;3.80;99.90
54516;DHT22;40422;45.892;4.738;2023-04-04T06:52:48;3.80;99.90
54516;DHT22;40422;45.892;4.738;2023-04-04T06:55:14;3.90;99.90
54516;DHT22;40422;45.892;4.738;2023-04-04T06:57:40;4.00;99.90
54516;DHT22;40422;45.892;4.738;2023-04-04T07:00:06;4.00;99.90
54516;DHT22;40422;45.892;4.738;2023-04-04T07:02:32;4.00;99.90
54516;DHT22;40422;45.892;4.738;2023-04-04T07:04:58;4.00;99.90
54516;DHT22;40422;45.892;4.738;2023-04-04T07:07:23;4.10;99.90
54516;DHT22;40422;45.892;4.738;2023-04-04T07:09:49;4.20;99.90
54516;DHT22;40422;45.892;4.738;2023-04-04T07:12:15;4.30;99.90
54516;DHT22;40422;45.892;4.738;2023-04-04T07:14:41;4.30;99.90
54516;DHT22;40422;45.892;4.738;2023-04-04T07:17:07;4.40;99.90
54516;DHT22;40422;45.892;4.738;2023-04-04T07:19:33;4.50;99.90
54516;DHT22;40422;45.892;4.738;2023-04-04T07:21:58;4.50;99.90
54516;DHT22;40422;45.892;4.738;2023-04-04T07:24:25;4.50;99.90
54516;DHT22;40422;45.892;4.738;2023-04-04T07:26:50;4.50;99.90
54516;DHT22;40422;45.892;4.738;2023-04-04T07:29:16;4.60;99.90
54516;DHT22;40422;45.892;4.738;2023-04-04T07:31:42;4.60;99.90
54516;DHT22;40422;45.892;4.738;2023-04-04T07:34:07;4.60;99.90
54516;DHT22;40422;45.892;4.738;2023-04-04T07:36:33;4.80;99.90
54516;DHT22;40422;45.892;4.738;2023-04-04T07:38:59;4.90;99.90
54516;DHT22;40422;45.892;4.738;2023-04-04T07:41:24;4.90;99.90
54516;DHT22;40422;45.892;4.738;2023-04-04T07:43:50;4.80;99.90
54516;DHT22;40422;45.892;4.738;2023-04-04T07:46:16;4.80;99.90
54516;DHT22;40422;45.892;4.738;2023-04-04T07:48:42;4.80;99.90
54516;DHT22;40422;45.892;4.738;2023-04-04T07:51:08;4.90;99.90
54516;DHT22;40422;45.892;4.738;2023-04-04T07:53:33;4.90;99.90
54516;DHT22;40422;45.892;4.738;2023-04-04T07:55:59;4.90;99.90
54516;DHT22;40422;45.892;4.738;2023-04-04T07:58:32;4.90;99.90
54516;DHT22;40422;45.892;4.738;2023-04-04T08:00:58;5.00;99.90
54516;DHT22;40422;45.892;4.738;2023-04-04T08:03:24;5.00;99.90
54516;DHT22;40422;45.892;4.738;2023-04-04T08:05:50;5.10;99.90
54516;DHT22;40422;45.892;4.738;2023-04-04T08:08:16;5.20;99.90
54516;DHT22;40422;45.892;4.738;2023-04-04T08:10:47;5.50;99.90
54516;DHT22;40422;45.892;4.738;2023-04-04T08:13:13;5.50;99.90
54516;DHT22;40422;45.892;4.738;2023-04-04T08:15:39;5.50;99.90
54516;DHT22;40422;45.892;4.738;2023-04-04T08:18:05;5.50;99.90
54516;DHT22;40422;45.892;4.738;2023-04-04T08:20:31;5.50;99.90
54516;DHT22;40422;45.892;4.738;2023-04-04T08:22:57;5.50;99.90
54516;DHT22;40422;45.892;4.738;2023-04-04T08:25:23;5.60;99.90
54516;DHT22;40422;45.892;4.738;2023-04-04T08:27:49;5.60;99.90
54516;DHT22;40422;45.892;4.738;2023-04-04T08:30:15;5.60;99.90
54516;DHT22;40422;45.892;4.738;2023-04-04T08:32:41;5.80;99.90
54516;DHT22;40422;45.892;4.738;2023-04-04T08:35:08;5.80;99.90
54516;DHT22;40422;45.892;4.738;2023-04-04T08:37:34;5.80;99.90
54516;DHT22;40422;45.892;4.738;2023-04-04T08:40:04;5.90;99.90
54516;DHT22;40422;45.892;4.738;2023-04-04T08:42:32;6.00;99.90
54516;DHT22;40422;45.892;4.738;2023-04-04T08:45:02;6.10;99.90
54516;DHT22;40422;45.892;4.738;2023-04-04T08:47:32;6.30;99.90
54516;DHT22;40422;45.892;4.738;2023-04-04T08:50:02;6.40;99.90
54516;DHT22;40422;45.892;4.738;2023-04-04T08:52:29;6.50;99.90
54516;DHT22;40422;45.892;4.738;2023-04-04T08:54:55;6.60;99.90
54516;DHT22;40422;45.892;4.738;2023-04-04T08:57:22;6.70;99.90
54516;DHT22;40422;45.892;4.738;2023-04-04T08:59:48;6.80;99.90
54516;DHT22;40422;45.892;4.738;2023-04-04T09:02:19;7.00;99.90
54516;DHT22;40422;45.892;4.738;2023-04-04T09:04:46;7.20;99.90
54516;DHT22;40422;45.892;4.738;2023-04-04T09:07:14;7.30;99.30
54516;DHT22;40422;45.892;4.738;2023-04-04T09:09:43;7.40;98.60
54516;DHT22;40422;45.892;4.738;2023-04-04T09:12:15;7.40;99.30
54516;DHT22;40422;45.892;4.738;2023-04-04T09:14:42;7.60;99.50
54516;DHT22;40422;45.892;4.738;2023-04-04T09:17:08;7.70;98.30
54516;DHT22;40422;45.892;4.738;2023-04-04T09:19:35;7.80;98.00
54516;DHT22;40422;45.892;4.738;2023-04-04T09:22:05;8.00;97.60
54516;DHT22;40422;45.892;4.738;2023-04-04T09:24:38;8.00;97.20
54516;DHT22;40422;45.892;4.738;2023-04-04T09:27:06;8.20;98.50
54516;DHT22;40422;45.892;4.738;2023-04-04T09:29:36;8.10;97.90
54516;DHT22;40422;45.892;4.738;2023-04-04T09:32:02;8.20;98.60
54516;DHT22;40422;45.892;4.738;2023-04-04T09:34:31;8.20;97.60
54516;DHT22;40422;45.892;4.738;2023-04-04T09:37:03;8.40;98.00
54516;DHT22;40422;45.892;4.738;2023-04-04T09:39:33;8.60;96.90
54516;DHT22;40422;45.892;4.738;2023-04-04T09:41:59;8.80;97.30
54516;DHT22;40422;45.892;4.738;2023-04-04T09:44:26;8.90;97.40
54516;DHT22;40422;45.892;4.738;2023-04-04T09:49:48;8.90;97.00
54516;DHT22;40422;45.892;4.738;2023-04-04T09:52:19;9.00;97.30
54516;DHT22;40422;45.892;4.738;2023-04-04T09:54:54;9.20;96.90
54516;DHT22;40422;45.892;4.738;2023-04-04T09:57:21;9.20;95.60
54516;DHT22;40422;45.892;4.738;2023-04-04T09:59:46;9.30;95.80
54516;DHT22;40422;45.892;4.738;2023-04-04T10:02:12;9.40;95.70
54516;DHT22;40422;45.892;4.738;2023-04-04T10:04:38;9.60;95.30
54516;DHT22;40422;45.892;4.738;2023-04-04T10:07:04;9.80;94.30
54516;DHT22;40422;45.892;4.738;2023-04-04T10:09:29;9.70;95.60
54516;DHT22;40422;45.892;4.738;2023-04-04T10:12:08;9.80;94.90
54516;DHT22;40422;45.892;4.738;2023-04-04T10:14:36;9.80;95.70
54516;DHT22;40422;45.892;4.738;2023-04-04T10:17:08;10.00;94.70
54516;DHT22;40422;45.892;4.738;2023-04-04T10:19:38;9.80;94.80
54516;DHT22;40422;45.892;4.738;2023-04-04T10:22:04;9.90;94.50
54516;DHT22;40422;45.892;4.738;2023-04-04T10:24:31;10.10;93.90
54516;DHT22;40422;45.892;4.738;2023-04-04T10:26:57;10.30;93.40
54516;DHT22;40422;45.892;4.738;2023-04-04T10:29:23;10.20;92.70
54516;DHT22;40422;45.892;4.738;2023-04-04T10:31:58;10.20;94.30
54516;DHT22;40422;45.892;4.738;2023-04-04T10:34:44;10.20;93.10
54516;DHT22;40422;45.892;4.738;2023-04-04T10:37:21;10.10;92.50
54516;DHT22;40422;45.892;4.738;2023-04-04T10:40:03;10.20;93.60
54516;DHT22;40422;45.892;4.738;2023-04-04T10:42:37;10.30;92.70
54516;DHT22;40422;45.892;4.738;2023-04-04T10:45:07;10.40;91.80
54516;DHT22;40422;45.892;4.738;2023-04-04T10:47:36;10.50;92.30
54516;DHT22;40422;45.892;4.738;2023-04-04T10:50:03;10.60;91.10
54516;DHT22;40422;45.892;4.738;2023-04-04T10:52:32;10.80;92.50
54516;DHT22;40422;45.892;4.738;2023-04-04T10:55:00;10.90;91.40
54516;DHT22;40422;45.892;4.738;2023-04-04T10:57:27;11.20;90.30
54516;DHT22;40422;45.892;4.738;2023-04-04T11:00:04;11.20;90.20
54516;DHT22;40422;45.892;4.738;2023-04-04T11:07:48;11.50;90.20
54516;DHT22;40422;45.892;4.738;2023-04-04T11:10:36;11.60;90.10
54516;DHT22;40422;45.892;4.738;2023-04-04T11:13:17;11.70;89.30
54516;DHT22;40422;45.892;4.738;2023-04-04T11:15:57;11.80;88.60
54516;DHT22;40422;45.892;4.738;2023-04-04T11:21:13;11.80;89.00
54516;DHT22;40422;45.892;4.738;2023-04-04T11:26:34;12.00;85.90
54516;DHT22;40422;45.892;4.738;2023-04-04T11:29:01;12.40;85.10
54516;DHT22;40422;45.892;4.738;2023-04-04T11:39:23;12.50;84.40
54516;DHT22;40422;45.892;4.738;2023-04-04T11:42:06;12.90;85.80
54516;DHT22;40422;45.892;4.738;2023-04-04T11:47:23;12.70;83.80
54516;DHT22;40422;45.892;4.738;2023-04-04T11:49:52;12.70;83.50
54516;DHT22;40422;45.892;4.738;2023-04-04T11:52:18;12.90;81.30
54516;DHT22;40422;45.892;4.738;2023-04-04T11:54:46;12.90;78.20
54516;DHT22;40422;45.892;4.738;2023-04-04T11:57:17;12.90;77.30
54516;DHT22;40422;45.892;4.738;2023-04-04T11:59:47;12.80;78.90
54516;DHT22;40422;45.892;4.738;2023-04-04T12:02:23;12.50;79.60
54516;DHT22;40422;45.892;4.738;2023-04-04T12:04:52;12.10;83.70
54516;DHT22;40422;45.892;4.738;2023-04-04T12:07:18;11.80;82.00
54516;DHT22;40422;45.892;4.738;2023-04-04T12:09:44;11.80;82.50
54516;DHT22;40422;45.892;4.738;2023-04-04T12:12:13;12.20;81.90
54516;DHT22;40422;45.892;4.738;2023-04-04T12:14:41;12.40;83.40
54516;DHT22;40422;45.892;4.738;2023-04-04T12:17:07;12.80;81.50
54516;DHT22;40422;45.892;4.738;2023-04-04T12:19:37;13.10;82.50
54516;DHT22;40422;45.892;4.738;2023-04-04T12:22:04;13.60;80.80
54516;DHT22;40422;45.892;4.738;2023-04-04T12:24:30;13.90;81.20
54516;DHT22;40422;45.892;4.738;2023-04-04T12:26:56;13.90;78.20
54516;DHT22;40422;45.892;4.738;2023-04-04T12:29:25;14.10;76.00
54516;DHT22;40422;45.892;4.738;2023-04-04T12:31:53;14.20;76.40
54516;DHT22;40422;45.892;4.738;2023-04-04T12:34:27;14.00;77.00
54516;DHT22;40422;45.892;4.738;2023-04-04T12:36:55;14.10;77.50
54516;DHT22;40422;45.892;4.738;2023-04-04T12:39:24;14.50;76.50
54516;DHT22;40422;45.892;4.738;2023-04-04T12:41:57;14.90;72.60
54516;DHT22;40422;45.892;4.738;2023-04-04T12:44:28;14.60;71.80
54516;DHT22;40422;45.892;4.738;2023-04-04T12:46:57;14.90;73.70
54516;DHT22;40422;45.892;4.738;2023-04-04T12:49:29;14.70;71.40
54516;DHT22;40422;45.892;4.738;2023-04-04T12:51:55;14.40;71.60
54516;DHT22;40422;45.892;4.738;2023-04-04T12:54:25;14.20;73.40
54516;DHT22;40422;45.892;4.738;2023-04-04T12:56:58;14.20;73.50
54516;DHT22;40422;45.892;4.738;2023-04-04T12:59:30;14.30;73.00
54516;DHT22;40422;45.892;4.738;2023-04-04T13:01:56;14.60;72.60
54516;DHT22;40422;45.892;4.738;2023-04-04T13:04:22;14.70;71.60
54516;DHT22;40422;45.892;4.738;2023-04-04T13:06:49;14.50;70.80
54516;DHT22;40422;45.892;4.738;2023-04-04T13:09:19;14.50;71.30
54516;DHT22;40422;45.892;4.738;2023-04-04T13:12:02;14.60;69.60
54516;DHT22;40422;45.892;4.738;2023-04-04T13:17:23;15.00;70.80
54516;DHT22;40422;45.892;4.738;2023-04-04T13:19:49;14.90;68.90
54516;DHT22;40422;45.892;4.738;2023-04-04T13:22:15;14.50;69.40
54516;DHT22;40422;45.892;4.738;2023-04-04T13:24:40;14.30;71.60
54516;DHT22;40422;45.892;4.738;2023-04-04T13:27:06;14.40;70.70
54516;DHT22;40422;45.892;4.738;2023-04-04T13:29:32;14.10;71.40
54516;DHT22;40422;45.892;4.738;2023-04-04T13:31:57;14.10;71.30
54516;DHT22;40422;45.892;4.738;2023-04-04T13:34:23;14.30;72.50
54516;DHT22;40422;45.892;4.738;2023-04-04T13:36:49;14.50;69.90
54516;DHT22;40422;45.892;4.738;2023-04-04T13:39:15;14.90;70.20
54516;DHT22;40422;45.892;4.738;2023-04-04T13:41:41;15.00;67.80
54516;DHT22;40422;45.892;4.738;2023-04-04T13:44:06;14.80;69.00
54516;DHT22;40422;45.892;4.738;2023-04-04T13:46:32;14.70;69.30
54516;DHT22;40422;45.892;4.738;2023-04-04T13:48:58;14.60;69.30
54516;DHT22;40422;45.892;4.738;2023-04-04T13:51:23;14.70;68.90
54516;DHT22;40422;45.892;4.738;2023-04-04T13:53:49;14.80;68.70
54516;DHT22;40422;45.892;4.738;2023-04-04T13:56:15;14.40;67.70
54516;DHT22;40422;45.892;4.738;2023-04-04T13:58:41;14.20;69.10
54516;DHT22;40422;45.892;4.738;2023-04-04T14:01:07;13.90;69.00
54516;DHT22;40422;45.892;4.738;2023-04-04T14:03:34;14.00;69.00
54516;DHT22;40422;45.892;4.738;2023-04-04T14:06:01;14.10;68.90
54516;DHT22;40422;45.892;4.738;2023-04-04T14:08:26;14.30;69.40
54516;DHT22;40422;45.892;4.738;2023-04-04T14:10:52;14.80;69.80
54516;DHT22;40422;45.892;4.738;2023-04-04T14:13:18;14.90;67.50
54516;DHT22;40422;45.892;4.738;2023-04-04T14:15:44;14.90;67.60
54516;DHT22;40422;45.892;4.738;2023-04-04T14:18:10;15.00;68.90
54516;DHT22;40422;45.892;4.738;2023-04-04T14:20:37;15.00;66.50
54516;DHT22;40422;45.892;4.738;2023-04-04T14:23:02;15.00;66.60
54516;DHT22;40422;45.892;4.738;2023-04-04T14:25:31;15.20;65.50
54516;DHT22;40422;45.892;4.738;2023-04-04T14:27:57;15.20;66.60
54516;DHT22;40422;45.892;4.738;2023-04-04T14:30:22;15.40;63.30
54516;DHT22;40422;45.892;4.738;2023-04-04T14:32:48;15.50;63.90
54516;DHT22;40422;45.892;4.738;2023-04-04T14:35:15;15.70;62.90
54516;DHT22;40422;45.892;4.738;2023-04-04T14:37:41;16.00;64.80
54516;DHT22;40422;45.892;4.738;2023-04-04T14:40:07;16.30;63.30
54516;DHT22;40422;45.892;4.738;2023-04-04T14:42:33;16.30;61.10
54516;DHT22;40422;45.892;4.738;2023-04-04T14:44:59;16.40;62.90
54516;DHT22;40422;45.892;4.738;2023-04-04T14:47:26;16.40;63.50
54516;DHT22;40422;45.892;4.738;2023-04-04T14:49:52;16.10;63.40
54516;DHT22;40422;45.892;4.738;2023-04-04T14:52:18;15.90;63.20
54516;DHT22;40422;45.892;4.738;2023-04-04T14:54:43;15.70;64.20
54516;DHT22;40422;45.892;4.738;2023-04-04T14:57:09;15.40;62.10
54516;DHT22;40422;45.892;4.738;2023-04-04T14:59:34;15.30;63.90
54516;DHT22;40422;45.892;4.738;2023-04-04T15:02:00;15.40;63.20
54516;DHT22;40422;45.892;4.738;2023-04-04T15:04:26;15.60;64.90
54516;DHT22;40422;45.892;4.738;2023-04-04T15:06:52;15.50;63.90
54516;DHT22;40422;45.892;4.738;2023-04-04T15:09:17;15.50;63.80
54516;DHT22;40422;45.892;4.738;2023-04-04T15:11:43;15.40;63.70
54516;DHT22;40422;45.892;4.738;2023-04-04T15:14:12;15.30;62.70
54516;DHT22;40422;45.892;4.738;2023-04-04T15:16:38;15.50;62.50
54516;DHT22;40422;45.892;4.738;2023-04-04T15:19:04;15.60;65.00
54516;DHT22;40422;45.892;4.738;2023-04-04T15:21:29;15.70;62.30
54516;DHT22;40422;45.892;4.738;2023-04-04T15:23:56;15.60;63.10
54516;DHT22;40422;45.892;4.738;2023-04-04T15:26:22;15.70;62.50
54516;DHT22;40422;45.892;4.738;2023-04-04T15:28:48;15.90;62.30
54516;DHT22;40422;45.892;4.738;2023-04-04T15:31:14;16.00;60.70
54516;DHT22;40422;45.892;4.738;2023-04-04T15:33:39;15.80;61.80
54516;DHT22;40422;45.892;4.738;2023-04-04T15:36:05;15.70;62.40
54516;DHT22;40422;45.892;4.738;2023-04-04T15:38:31;15.80;62.40
54516;DHT22;40422;45.892;4.738;2023-04-04T15:40:56;15.50;61.50
54516;DHT22;40422;45.892;4.738;2023-04-04T15:43:22;15.20;62.20
54516;DHT22;40422;45.892;4.738;2023-04-04T15:45:49;15.30;63.30
54516;DHT22;40422;45.892;4.738;2023-04-04T15:48:14;15.60;61.60
54516;DHT22;40422;45.892;4.738;2023-04-04T15:50:40;15.70;61.00
54516;DHT22;40422;45.892;4.738;2023-04-04T15:53:06;15.60;62.00
54516;DHT22;40422;45.892;4.738;2023-04-04T15:55:32;15.70;62.30
54516;DHT22;40422;45.892;4.738;2023-04-04T15:57:57;15.70;62.50
54516;DHT22;40422;45.892;4.738;2023-04-04T16:00:25;15.40;61.50
54516;DHT22;40422;45.892;4.738;2023-04-04T16:02:56;15.20;62.60
54516;DHT22;40422;45.892;4.738;2023-04-04T16:05:21;15.00;61.20
54516;DHT22;40422;45.892;4.738;2023-04-04T16:07:47;14.90;62.10
54516;DHT22;40422;45.892;4.738;2023-04-04T16:10:12;14.90;61.10
54516;DHT22;40422;45.892;4.738;2023-04-04T16:12:38;14.80;61.50
54516;DHT22;40422;45.892;4.738;2023-04-04T16:15:05;14.80;61.60
54516;DHT22;40422;45.892;4.738;2023-04-04T16:17:31;14.80;61.90
54516;DHT22;40422;45.892;4.738;2023-04-04T16:19:57;14.90;62.60
54516;DHT22;40422;45.892;4.738;2023-04-04T16:22:23;15.00;61.70
54516;DHT22;40422;45.892;4.738;2023-04-04T16:24:48;14.90;61.20
54516;DHT22;40422;45.892;4.738;2023-04-04T16:27:14;14.80;61.80
54516;DHT22;40422;45.892;4.738;2023-04-04T16:29:40;14.80;60.80
54516;DHT22;40422;45.892;4.738;2023-04-04T16:32:05;14.60;61.40
54516;DHT22;40422;45.892;4.738;2023-04-04T16:34:33;14.50;60.80
54516;DHT22;40422;45.892;4.738;2023-04-04T16:36:59;14.50;61.30
54516;DHT22;40422;45.892;4.738;2023-04-04T16:39:24;14.50;61.60
54516;DHT22;40422;45.892;4.738;2023-04-04T16:41:50;14.50;60.80
54516;DHT22;40422;45.892;4.738;2023-04-04T16:44:16;14.70;61.20
54516;DHT22;40422;45.892;4.738;2023-04-04T16:46:41;14.80;60.70
54516;DHT22;40422;45.892;4.738;2023-04-04T16:49:07;14.80;61.30
54516;DHT22;40422;45.892;4.738;2023-04-04T16:51:34;14.50;61.60
54516;DHT22;40422;45.892;4.738;2023-04-04T16:54:00;14.60;61.60
54516;DHT22;40422;45.892;4.738;2023-04-04T16:56:25;14.40;61.90
54516;DHT22;40422;45.892;4.738;2023-04-04T16:58:51;14.10;61.60
54516;DHT22;40422;45.892;4.738;2023-04-04T17:01:17;14.10;62.90
54516;DHT22;40422;45.892;4.738;2023-04-04T17:03:47;14.10;62.50
54516;DHT22;40422;45.892;4.738;2023-04-04T17:06:13;14.00;61.80
54516;DHT22;40422;45.892;4.738;2023-04-04T17:08:38;14.00;62.50
54516;DHT22;40422;45.892;4.738;2023-04-04T17:11:06;14.00;63.20
54516;DHT22;40422;45.892;4.738;2023-04-04T17:13:32;13.90;64.40
54516;DHT22;40422;45.892;4.738;2023-04-04T17:15:58;13.90;63.60
54516;DHT22;40422;45.892;4.738;2023-04-04T17:18:23;13.70;62.80
54516;DHT22;40422;45.892;4.738;2023-04-04T17:20:49;13.50;63.20
54516;DHT22;40422;45.892;4.738;2023-04-04T17:23:16;13.30;64.00
54516;DHT22;40422;45.892;4.738;2023-04-04T17:25:41;13.30;64.60
54516;DHT22;40422;45.892;4.738;2023-04-04T17:28:07;13.20;64.90
54516;DHT22;40422;45.892;4.738;2023-04-04T17:30:33;13.10;64.50
54516;DHT22;40422;45.892;4.738;2023-04-04T17:32:58;13.00;65.30
54516;DHT22;40422;45.892;4.738;2023-04-04T17:35:24;12.80;65.80
54516;DHT22;40422;45.892;4.738;2023-04-04T17:37:50;12.80;65.90
54516;DHT22;40422;45.892;4.738;2023-04-04T17:40:16;12.70;66.30
54516;DHT22;40422;45.892;4.738;2023-04-04T17:42:42;12.70;66.50
54516;DHT22;40422;45.892;4.738;2023-04-04T17:45:08;12.60;65.60
54516;DHT22;40422;45.892;4.738;2023-04-04T17:47:34;12.50;66.20
54516;DHT22;40422;45.892;4.738;2023-04-04T17:49:59;12.30;65.90
54516;DHT22;40422;45.892;4.738;2023-04-04T17:52:25;12.10;66.70
54516;DHT22;40422;45.892;4.738;2023-04-04T17:54:52;11.90;66.20
54516;DHT22;40422;45.892;4.738;2023-04-04T17:57:18;11.70;67.00
54516;DHT22;40422;45.892;4.738;2023-04-04T17:59:44;11.50;68.80
54516;DHT22;40422;45.892;4.738;2023-04-04T18:02:10;11.40;68.80
54516;DHT22;40422;45.892;4.738;2023-04-04T18:04:39;11.20;68.90
54516;DHT22;40422;45.892;4.738;2023-04-04T18:07:05;11.00;69.70
54516;DHT22;40422;45.892;4.738;2023-04-04T18:09:31;11.00;69.80
54516;DHT22;40422;45.892;4.738;2023-04-04T18:11:56;10.90;70.60
54516;DHT22;40422;45.892;4.738;2023-04-04T18:14:23;10.70;71.00
54516;DHT22;40422;45.892;4.738;2023-04-04T18:16:49;10.70;71.00
54516;DHT22;40422;45.892;4.738;2023-04-04T18:19:14;10.50;71.10
54516;DHT22;40422;45.892;4.738;2023-04-04T18:21:40;10.40;72.40
54516;DHT22;40422;45.892;4.738;2023-04-04T18:24:06;10.30;72.00
54516;DHT22;40422;45.892;4.738;2023-04-04T18:26:33;10.20;71.90
54516;DHT22;40422;45.892;4.738;2023-04-04T18:28:59;10.10;72.90
54516;DHT22;40422;45.892;4.738;2023-04-04T18:31:25;10.10;73.00
54516;DHT22;40422;45.892;4.738;2023-04-04T18:33:51;10.00;72.90
54516;DHT22;40422;45.892;4.738;2023-04-04T18:36:16;10.00;73.40
54516;DHT22;40422;45.892;4.738;2023-04-04T18:38:43;9.90;73.50
54516;DHT22;40422;45.892;4.738;2023-04-04T18:41:09;9.90;73.70
54516;DHT22;40422;45.892;4.738;2023-04-04T18:43:35;9.80;74.10
54516;DHT22;40422;45.892;4.738;2023-04-04T18:46:01;9.80;74.10
54516;DHT22;40422;45.892;4.738;2023-04-04T18:48:31;9.70;74.00
54516;DHT22;40422;45.892;4.738;2023-04-04T18:50:57;9.70;74.40
54516;DHT22;40422;45.892;4.738;2023-04-04T18:53:22;9.60;74.50
54516;DHT22;40422;45.892;4.738;2023-04-04T18:55:49;9.50;74.50
54516;DHT22;40422;45.892;4.738;2023-04-04T18:58:21;9.50;75.00
54516;DHT22;40422;45.892;4.738;2023-04-04T19:00:47;9.40;75.20
54516;DHT22;40422;45.892;4.738;2023-04-04T19:03:13;9.30;75.50